Time,TemperatureF,DewpointF,PressureIn,WindDirection,WindDirectionDegrees,WindSpeedMPH,WindSpeedGustMPH,Humidity,HourlyPrecipIn,Conditions,Clouds,dailyrainin,SoftwareType,DateUTC
2013-01-08 00:05:00,49.3,48.8,30.20,ENE,67,0.0,-999.0,98,-99.99,,,0.00,Acu-Link.com,2013-01-08 08:05:00,
2013-01-08 00:21:00,49.3,48.8,30.20,ESE,112,0.0,-999.0,98,-99.99,,,0.00,Acu-Link.com,2013-01-08 08:21:00,
2013-01-08 00:36:00,49.3,48.8,30.21,West,270,0.0,-999.0,98,-99.99,,,0.01,Acu-Link.com,2013-01-08 08:36:00,
2013-01-08 00:51:00,49.6,49.1,30.21,West,270,1.7,-999.0,98,-99.99,,,0.01,Acu-Link.com,2013-01-08 08:51:00,
2013-01-08 01:08:00,49.6,49.1,30.20,South,180,1.7,-999.0,98,-99.99,,,0.01,Acu-Link.com,2013-01-08 09:08:00,
2013-01-08 01:24:00,49.5,49.0,30.20,WSW,247,0.0,-999.0,98,-99.99,,,0.02,Acu-Link.com,2013-01-08 09:24:00,
2013-01-08 01:39:00,49.5,49.0,30.19,West,270,0.0,-999.0,98,-99.99,,,0.02,Acu-Link.com,2013-01-08 09:39:00,
2013-01-08 01:54:00,49.5,49.0,30.20,NNW,337,0.0,-999.0,98,-99.99,,,0.02,Acu-Link.com,2013-01-08 09:54:00,
2013-01-08 02:09:00,49.5,49.0,30.21,NNE,22,0.0,-999.0,98,-99.99,,,0.02,Acu-Link.com,2013-01-08 10:09:00,
2013-01-08 02:25:00,49.5,49.0,30.20,East,90,0.0,-999.0,98,-99.99,,,0.02,Acu-Link.com,2013-01-08 10:25:00,
2013-01-08 02:40:00,49.3,48.8,30.19,ESE,112,0.0,-999.0,98,-99.99,,,0.02,Acu-Link.com,2013-01-08 10:40:00,
2013-01-08 02:55:00,49.3,48.8,30.20,North,0,0.0,-999.0,98,-99.99,,,0.02,Acu-Link.com,2013-01-08 10:55:00,
2013-01-08 03:10:00,49.3,48.8,30.19,NNE,22,0.0,-999.0,98,-99.99,,,0.03,Acu-Link.com,2013-01-08 11:10:00,
2013-01-08 03:26:00,49.1,48.6,30.19,SE,135,0.0,-999.0,98,-99.99,,,0.03,Acu-Link.com,2013-01-08 11:26:00,
2013-01-08 03:41:00,49.1,48.6,30.18,SE,135,0.0,-999.0,98,-99.99,,,0.03,Acu-Link.com,2013-01-08 11:41:00,
2013-01-08 03:56:00,49.1,48.6,30.19,SW,225,1.7,-999.0,98,-99.99,,,0.03,Acu-Link.com,2013-01-08 11:56:00,
2013-01-08 04:12:00,48.9,48.4,30.17,SW,225,1.1,-999.0,98,-99.99,,,0.03,Acu-Link.com,2013-01-08 12:12:00,
2013-01-08 04:27:00,48.9,48.4,30.17,East,90,1.1,-999.0,98,-99.99,,,0.03,Acu-Link.com,2013-01-08 12:27:00,
2013-01-08 04:42:00,48.9,48.4,30.16,NNE,22,0.0,-999.0,98,-99.99,,,0.03,Acu-Link.com,2013-01-08 12:42:00,
2013-01-08 04:58:00,48.9,48.4,30.16,NNW,337,0.0,-999.0,98,-99.99,,,0.03,Acu-Link.com,2013-01-08 12:58:00,
2013-01-08 05:13:00,48.7,48.2,30.15,SW,225,0.0,-999.0,98,-99.99,,,0.03,Acu-Link.com,2013-01-08 13:13:00,
2013-01-08 05:28:00,48.7,48.2,30.15,NNW,337,0.0,-999.0,98,-99.99,,,0.03,Acu-Link.com,2013-01-08 13:28:00,
2013-01-08 05:43:00,48.7,48.2,30.15,NW,315,0.0,-999.0,98,-99.99,,,0.03,Acu-Link.com,2013-01-08 13:43:00,
2013-01-08 05:59:00,48.7,48.2,30.16,SE,135,0.0,-999.0,98,-99.99,,,0.03,Acu-Link.com,2013-01-08 13:59:00,
2013-01-08 06:14:00,48.7,48.2,30.17,NE,45,0.0,-999.0,98,-99.99,,,0.03,Acu-Link.com,2013-01-08 14:14:00,
2013-01-08 06:30:00,48.6,48.1,30.16,NNW,337,0.0,-999.0,98,-99.99,,,0.03,Acu-Link.com,2013-01-08 14:30:00,
2013-01-08 06:45:00,48.6,48.1,30.15,ESE,112,0.0,-999.0,98,-99.99,,,0.03,Acu-Link.com,2013-01-08 14:45:00,
2013-01-08 07:00:00,48.6,48.1,30.15,SSW,202,0.0,-999.0,98,-99.99,,,0.03,Acu-Link.com,2013-01-08 15:00:00,
2013-01-08 07:15:00,48.4,47.9,30.17,East,90,0.0,-999.0,98,-99.99,,,0.03,Acu-Link.com,2013-01-08 15:15:00,
2013-01-08 07:31:00,48.4,47.9,30.16,ESE,112,0.0,-999.0,98,-99.99,,,0.03,Acu-Link.com,2013-01-08 15:31:00,
2013-01-08 07:46:00,48.4,47.9,30.16,ESE,112,0.0,-999.0,98,-99.99,,,0.03,Acu-Link.com,2013-01-08 15:46:00,
2013-01-08 08:01:00,48.4,47.9,30.17,ESE,112,0.0,-999.0,98,-99.99,,,0.03,Acu-Link.com,2013-01-08 16:01:00,
2013-01-08 08:16:00,48.6,48.1,30.17,NNW,337,2.7,-999.0,98,-99.99,,,0.03,Acu-Link.com,2013-01-08 16:16:00,
2013-01-08 08:32:00,48.6,48.1,30.17,SE,135,0.0,-999.0,98,-99.99,,,0.03,Acu-Link.com,2013-01-08 16:32:00,
2013-01-08 08:47:00,48.9,48.4,30.17,West,270,0.0,-999.0,98,-99.99,,,0.03,Acu-Link.com,2013-01-08 16:47:00,
2013-01-08 09:02:00,49.1,48.6,30.18,NW,315,2.2,-999.0,98,-99.99,,,0.04,Acu-Link.com,2013-01-08 17:02:00,
2013-01-08 09:18:00,49.3,48.8,30.18,ESE,112,0.0,-999.0,98,-99.99,,,0.04,Acu-Link.com,2013-01-08 17:18:00,
2013-01-08 09:33:00,49.6,49.1,30.18,West,270,0.0,-999.0,98,-99.99,,,0.04,Acu-Link.com,2013-01-08 17:33:00,
2013-01-08 09:48:00,50.4,49.9,30.18,WNW,292,0.0,-999.0,98,-99.99,,,0.04,Acu-Link.com,2013-01-08 17:48:00,
2013-01-08 10:04:00,51.4,50.9,30.17,West,270,0.0,-999.0,98,-99.99,,,0.04,Acu-Link.com,2013-01-08 18:04:00,
2013-01-08 10:19:00,52.9,52.4,30.16,SSW,202,0.0,-999.0,98,-99.99,,,0.04,Acu-Link.com,2013-01-08 18:19:00,
2013-01-08 10:34:00,54.5,53.9,30.16,WSW,247,1.1,-999.0,98,-99.99,,,0.04,Acu-Link.com,2013-01-08 18:34:00,
2013-01-08 10:49:00,55.6,55.0,30.15,SW,225,3.2,-999.0,98,-99.99,,,0.04,Acu-Link.com,2013-01-08 18:49:00,
2013-01-08 11:05:00,57.0,56.4,30.15,SSW,202,2.7,-999.0,98,-99.99,,,0.04,Acu-Link.com,2013-01-08 19:05:00,
2013-01-08 11:20:00,58.3,57.7,30.13,SW,225,1.7,-999.0,98,-99.99,,,0.04,Acu-Link.com,2013-01-08 19:20:00,
2013-01-08 11:35:00,60.1,59.5,30.13,WSW,247,2.2,-999.0,98,-99.99,,,0.04,Acu-Link.com,2013-01-08 19:35:00,
2013-01-08 11:51:00,61.7,61.1,30.13,South,180,2.7,-999.0,98,-99.99,,,0.04,Acu-Link.com,2013-01-08 19:51:00,
2013-01-08 12:06:00,62.1,61.5,30.12,SW,225,2.7,-999.0,98,-99.99,,,0.04,Acu-Link.com,2013-01-08 20:06:00,
2013-01-08 12:21:00,60.8,60.2,30.12,WSW,247,1.7,-999.0,98,-99.99,,,0.04,Acu-Link.com,2013-01-08 20:21:00,
2013-01-08 12:37:00,59.7,59.1,30.12,SW,225,5.3,-999.0,98,-99.99,,,0.04,Acu-Link.com,2013-01-08 20:37:00,
2013-01-08 12:52:00,59.9,59.3,30.11,WSW,247,4.7,-999.0,98,-99.99,,,0.04,Acu-Link.com,2013-01-08 20:52:00,
2013-01-08 13:07:00,58.1,57.5,30.11,SW,225,6.8,-999.0,98,-99.99,,,0.04,Acu-Link.com,2013-01-08 21:07:00,
2013-01-08 13:22:00,58.6,58.0,30.11,SW,225,6.3,-999.0,98,-99.99,,,0.04,Acu-Link.com,2013-01-08 21:22:00,
2013-01-08 13:37:00,57.6,57.0,30.11,West,270,6.8,-999.0,98,-99.99,,,0.04,Acu-Link.com,2013-01-08 21:37:00,
2013-01-08 13:54:00,57.9,57.3,30.11,WSW,247,5.8,-999.0,98,-99.99,,,0.04,Acu-Link.com,2013-01-08 21:54:00,
2013-01-08 14:09:00,57.4,56.8,30.12,SSW,202,6.3,-999.0,98,-99.99,,,0.04,Acu-Link.com,2013-01-08 22:09:00,
2013-01-08 14:25:00,57.7,57.1,30.09,West,270,5.3,-999.0,98,-99.99,,,0.04,Acu-Link.com,2013-01-08 22:25:00,
2013-01-08 14:40:00,58.5,57.9,30.09,SW,225,5.3,-999.0,98,-99.99,,,0.04,Acu-Link.com,2013-01-08 22:40:00,
2013-01-08 14:55:00,58.5,57.9,30.09,West,270,5.3,-999.0,98,-99.99,,,0.04,Acu-Link.com,2013-01-08 22:55:00,
2013-01-08 15:11:00,57.7,57.1,30.08,West,270,5.8,-999.0,98,-99.99,,,0.04,Acu-Link.com,2013-01-08 23:11:00,
2013-01-08 15:28:00,57.2,56.6,30.08,West,270,4.7,-999.0,98,-99.99,,,0.04,Acu-Link.com,2013-01-08 23:28:00,
2013-01-08 15:43:00,56.8,56.2,30.07,SW,225,5.3,-999.0,98,-99.99,,,0.04,Acu-Link.com,2013-01-08 23:43:00,
2013-01-08 15:58:00,55.9,55.3,30.08,WSW,247,5.3,-999.0,98,-99.99,,,0.04,Acu-Link.com,2013-01-08 23:58:00,
2013-01-08 16:14:00,55.4,54.8,30.07,SE,135,4.7,-999.0,98,-99.99,,,0.04,Acu-Link.com,2013-01-09 00:14:00,
2013-01-08 16:29:00,54.1,53.5,30.06,SE,135,1.7,-999.0,98,-99.99,,,0.04,Acu-Link.com,2013-01-09 00:29:00,
2013-01-08 16:45:00,52.5,52.0,30.06,North,0,2.7,-999.0,98,-99.99,,,0.04,Acu-Link.com,2013-01-09 00:45:00,
2013-01-08 17:00:00,51.6,51.1,30.05,SW,225,1.7,-999.0,98,-99.99,,,0.04,Acu-Link.com,2013-01-09 01:00:00,
2013-01-08 17:15:00,50.7,50.2,30.05,SW,225,0.0,-999.0,98,-99.99,,,0.04,Acu-Link.com,2013-01-09 01:15:00,
2013-01-08 17:31:00,49.6,49.1,30.04,ESE,112,0.0,-999.0,98,-99.99,,,0.04,Acu-Link.com,2013-01-09 01:31:00,
2013-01-08 17:46:00,48.9,48.4,30.03,ESE,112,1.7,-999.0,98,-99.99,,,0.04,Acu-Link.com,2013-01-09 01:46:00,
2013-01-08 18:01:00,48.0,47.5,30.01,ESE,112,2.2,-999.0,98,-99.99,,,0.04,Acu-Link.com,2013-01-09 02:01:00,
2013-01-08 18:16:00,47.3,46.8,30.00,ESE,112,0.0,-999.0,98,-99.99,,,0.04,Acu-Link.com,2013-01-09 02:16:00,
2013-01-08 18:32:00,46.6,46.1,30.01,ESE,112,0.0,-999.0,98,-99.99,,,0.04,Acu-Link.com,2013-01-09 02:32:00,
2013-01-08 18:47:00,46.0,45.5,30.00,East,90,1.7,-999.0,98,-99.99,,,0.04,Acu-Link.com,2013-01-09 02:47:00,
2013-01-08 19:02:00,46.0,45.5,29.98,NNE,22,0.0,-999.0,98,-99.99,,,0.04,Acu-Link.com,2013-01-09 03:02:00,
2013-01-08 19:18:00,45.9,45.4,29.98,ESE,112,0.0,-999.0,98,-99.99,,,0.04,Acu-Link.com,2013-01-09 03:18:00,
2013-01-08 19:33:00,45.5,45.0,29.97,ESE,112,0.0,-999.0,98,-99.99,,,0.04,Acu-Link.com,2013-01-09 03:33:00,
2013-01-08 19:48:00,45.5,45.0,29.97,East,90,0.0,-999.0,98,-99.99,,,0.04,Acu-Link.com,2013-01-09 03:48:00,
2013-01-08 20:04:00,45.5,45.0,29.97,ESE,112,0.0,-999.0,98,-99.99,,,0.04,Acu-Link.com,2013-01-09 04:04:00,
2013-01-08 20:19:00,45.7,45.2,29.96,NE,45,0.0,-999.0,98,-99.99,,,0.04,Acu-Link.com,2013-01-09 04:19:00,
2013-01-08 20:34:00,45.7,45.2,29.95,WNW,292,1.1,-999.0,98,-99.99,,,0.04,Acu-Link.com,2013-01-09 04:34:00,
2013-01-08 20:53:00,45.3,44.8,29.96,NE,45,0.0,-999.0,98,-99.99,,,0.04,Acu-Link.com,2013-01-09 04:53:00,
2013-01-08 21:09:00,45.1,44.6,29.95,NE,45,0.0,-999.0,98,-99.99,,,0.04,Acu-Link.com,2013-01-09 05:09:00,
2013-01-08 21:24:00,45.3,44.8,29.94,ENE,67,0.0,-999.0,98,-99.99,,,0.04,Acu-Link.com,2013-01-09 05:24:00,
2013-01-08 21:40:00,45.0,44.5,29.94,South,180,0.0,-999.0,98,-99.99,,,0.04,Acu-Link.com,2013-01-09 05:40:00,
2013-01-08 21:55:00,44.6,44.1,29.94,ESE,112,0.0,-999.0,98,-99.99,,,0.04,Acu-Link.com,2013-01-09 05:55:00,
2013-01-08 22:26:00,44.8,44.3,29.94,NNE,22,2.7,-999.0,98,-99.99,,,0.04,Acu-Link.com,2013-01-09 06:26:00,
2013-01-08 22:41:00,46.4,45.9,29.94,NNE,22,2.7,-999.0,98,-99.99,,,0.04,Acu-Link.com,2013-01-09 06:41:00,
2013-01-08 22:57:00,46.6,46.1,29.95,NW,315,2.7,-999.0,98,-99.99,,,0.04,Acu-Link.com,2013-01-09 06:57:00,
2013-01-08 23:12:00,46.9,46.4,29.93,WNW,292,0.0,-999.0,98,-99.99,,,0.04,Acu-Link.com,2013-01-09 07:12:00,
2013-01-08 23:27:00,47.7,47.2,29.94,ESE,112,2.7,-999.0,98,-99.99,,,0.04,Acu-Link.com,2013-01-09 07:27:00,
2013-01-08 23:42:00,47.8,47.3,29.94,NW,315,2.2,-999.0,98,-99.99,,,0.04,Acu-Link.com,2013-01-09 07:42:00,
2013-01-08 23:58:00,48.4,47.9,29.93,West,270,5.3,-999.0,98,-99.99,,,0.04,Acu-Link.com,2013-01-09 07:58:00,